createdAt,value
2018-07-25T00:00:09.913Z,10.33
2018-07-25T00:02:38.985Z,10.30
2018-07-25T00:05:08.271Z,10.00
2018-07-25T00:07:37.095Z,10.13
2018-07-25T00:10:06.017Z,10.20
2018-07-25T00:12:35.368Z,9.90
2018-07-25T00:15:04.771Z,9.80
2018-07-25T00:17:37.397Z,10.67
2018-07-25T00:20:06.639Z,10.77
2018-07-25T00:22:35.996Z,9.87
2018-07-25T00:25:05.473Z,10.40
2018-07-25T00:27:35.150Z,9.63
2018-07-25T00:39:47.593Z,10.63
2018-07-25T00:42:16.809Z,9.90
2018-07-25T00:44:45.868Z,10.40
2018-07-25T00:47:15.293Z,10.60
2018-07-25T00:49:44.491Z,10.83
2018-07-25T00:52:13.328Z,10.20
2018-07-25T00:54:42.148Z,10.73
2018-07-25T00:57:11.505Z,11.20
2018-07-25T00:59:47.352Z,10.40
2018-07-25T01:02:26.446Z,10.33
2018-07-25T01:04:58.605Z,10.33
2018-07-25T01:07:33.174Z,10.20
2018-07-25T01:10:16.404Z,10.50
2018-07-25T01:12:49.055Z,10.47
2018-07-25T01:15:22.667Z,10.93
2018-07-25T01:17:54.932Z,9.97
2018-07-25T01:20:26.289Z,10.50
2018-07-25T01:22:58.567Z,10.07
2018-07-25T01:25:32.994Z,10.23
2018-07-25T01:28:15.503Z,10.77
2018-07-25T01:30:50.160Z,10.13
2018-07-25T01:33:24.126Z,10.77
2018-07-25T01:35:58.213Z,10.13
2018-07-25T01:38:31.212Z,11.00
2018-07-25T01:41:05.661Z,9.53
2018-07-25T01:43:40.352Z,10.23
2018-07-25T01:46:13.085Z,10.40
2018-07-25T01:48:49.009Z,10.73
2018-07-25T01:51:24.913Z,10.57
2018-07-25T01:53:58.541Z,10.10
2018-07-25T01:59:37.915Z,10.43
2018-07-25T02:02:51.999Z,10.00
2018-07-25T02:05:34.967Z,9.80
2018-07-25T02:08:24.049Z,10.23
2018-07-25T02:11:12.063Z,9.57
2018-07-25T02:14:03.268Z,10.07
2018-07-25T02:16:44.906Z,10.43
2018-07-25T02:22:21.283Z,9.73
2018-07-25T02:25:04.903Z,10.07
2018-07-25T02:30:36.209Z,9.60
2018-07-25T03:21:46.052Z,9.80
2018-07-25T04:11:38.065Z,10.23
2018-07-25T04:32:34.098Z,12.80
2018-07-25T04:35:15.767Z,10.30
2018-07-25T04:37:45.355Z,11.47
2018-07-25T04:40:15.563Z,10.20
2018-07-25T04:42:44.515Z,10.07
2018-07-25T04:45:13.828Z,9.50
2018-07-25T04:47:42.654Z,10.03
2018-07-25T04:50:11.744Z,10.73
2018-07-25T04:52:41.274Z,10.67
2018-07-25T04:55:12.669Z,10.50
2018-07-25T04:57:49.960Z,9.97
2018-07-25T05:03:14.670Z,10.40
2018-07-25T05:05:44.197Z,10.60
2018-07-25T05:08:13.729Z,9.70
2018-07-25T05:10:42.906Z,10.17
2018-07-25T05:13:12.084Z,10.10
2018-07-25T05:15:45.365Z,9.90
2018-07-25T05:18:19.651Z,9.27
2018-07-25T05:20:51.696Z,9.93
2018-07-25T05:23:25.626Z,9.40
2018-07-25T05:26:06.536Z,9.20
2018-07-25T05:28:35.336Z,10.67
2018-07-25T05:31:04.478Z,9.20
2018-07-25T05:33:33.333Z,9.10
2018-07-25T05:36:02.141Z,9.07
2018-07-25T05:38:31.193Z,9.20
2018-07-25T05:41:00.240Z,9.40
2018-07-25T05:43:29.029Z,8.90
2018-07-25T05:45:57.908Z,8.70
2018-07-25T05:48:26.716Z,8.93
2018-07-25T05:50:55.760Z,9.53
2018-07-25T05:53:25.021Z,8.50
2018-07-25T05:55:54.196Z,8.83
2018-07-25T05:58:23.016Z,8.20
2018-07-25T06:00:51.828Z,7.83
2018-07-25T06:03:21.032Z,7.87
2018-07-25T06:05:55.788Z,8.43
2018-07-25T06:08:25.304Z,8.17
2018-07-25T06:11:01.381Z,8.10
2018-07-25T06:13:30.237Z,7.83
2018-07-25T06:15:59.088Z,8.37
2018-07-25T06:18:27.923Z,8.33
2018-07-25T06:20:56.773Z,7.53
2018-07-25T06:23:25.589Z,9.17
2018-07-25T06:25:54.691Z,7.57
2018-07-25T06:28:23.932Z,8.23
2018-07-25T06:30:53.010Z,7.33
2018-07-25T06:33:22.054Z,7.40
2018-07-25T06:35:51.077Z,8.77
2018-07-25T06:38:20.245Z,8.90
2018-07-25T06:40:49.607Z,7.73
2018-07-25T06:43:18.704Z,10.27
2018-07-25T06:45:48.044Z,8.17
2018-07-25T06:48:17.656Z,6.90
2018-07-25T06:50:46.868Z,7.40
2018-07-25T06:53:15.832Z,7.70
2018-07-25T06:55:44.668Z,7.20
2018-07-25T06:58:14.305Z,6.83
2018-07-25T07:00:43.128Z,7.10
2018-07-25T07:03:12.528Z,7.47
2018-07-25T07:05:41.632Z,7.00
2018-07-25T07:08:10.980Z,7.20
2018-07-25T07:10:39.934Z,6.73
2018-07-25T07:13:09.907Z,6.87
2018-07-25T07:15:39.792Z,6.40
2018-07-25T07:18:10.656Z,7.50
2018-07-25T07:20:39.523Z,6.43
2018-07-25T07:23:08.416Z,6.63
2018-07-25T07:25:37.621Z,7.17
2018-07-25T07:30:58.216Z,6.63
2018-07-25T07:33:27.481Z,6.10
2018-07-25T07:35:56.368Z,5.83
2018-07-25T07:38:26.459Z,8.63
2018-07-25T07:40:55.664Z,5.57
2018-07-25T07:43:25.077Z,6.03
2018-07-25T07:45:54.005Z,8.10
2018-07-25T07:48:23.765Z,6.10
2018-07-25T07:50:54.117Z,6.70
2018-07-25T07:59:30.157Z,6.07
2018-07-25T08:02:00.475Z,6.27
2018-07-25T08:04:30.186Z,6.20
2018-07-25T08:06:59.276Z,6.20
2018-07-25T08:09:39.144Z,6.07
2018-07-25T08:12:08.849Z,6.30
2018-07-25T08:14:40.489Z,8.90
2018-07-25T08:17:09.873Z,6.87
2018-07-25T08:19:39.063Z,6.27
2018-07-25T08:22:08.500Z,6.77
2018-07-25T08:24:37.757Z,6.37
2018-07-25T08:27:06.826Z,6.73
2018-07-25T08:29:35.642Z,6.50
2018-07-25T08:32:04.753Z,6.60
2018-07-25T08:37:33.760Z,5.67
2018-07-25T08:40:02.977Z,6.83
2018-07-25T08:42:32.097Z,9.80
2018-07-25T08:45:01.316Z,6.40
2018-07-25T08:47:30.172Z,7.57
2018-07-25T08:49:59.569Z,6.30
2018-07-25T08:52:28.876Z,5.83
2018-07-25T08:54:57.889Z,5.50
2018-07-25T08:57:27.307Z,6.03
2018-07-25T08:59:56.359Z,7.40
2018-07-25T09:02:25.419Z,7.40
2018-07-25T09:04:54.521Z,6.00
2018-07-25T09:07:23.404Z,8.60
2018-07-25T09:09:52.812Z,6.30
2018-07-25T09:12:22.241Z,6.17
2018-07-25T09:14:51.772Z,7.50
2018-07-25T09:17:21.292Z,6.10
2018-07-25T09:19:50.790Z,6.20
2018-07-25T09:22:20.213Z,5.23
2018-07-25T09:24:49.276Z,7.73
2018-07-25T09:27:18.481Z,8.03
2018-07-25T09:29:47.531Z,5.67
2018-07-25T09:32:16.795Z,5.93
2018-07-25T09:34:46.209Z,5.70
2018-07-25T09:37:15.249Z,5.23
2018-07-25T09:39:44.649Z,5.03
2018-07-25T09:42:14.721Z,5.20
2018-07-25T09:44:43.964Z,7.73
2018-07-25T09:47:12.988Z,5.30
2018-07-25T09:49:42.049Z,5.93
2018-07-25T09:52:11.684Z,6.83
2018-07-25T09:54:40.920Z,4.60
2018-07-25T09:57:10.824Z,4.40
2018-07-25T09:59:40.076Z,5.77
2018-07-25T10:02:09.347Z,5.33
2018-07-25T10:04:38.395Z,5.07
2018-07-25T10:07:07.692Z,4.93
2018-07-25T10:09:36.986Z,4.67
2018-07-25T10:12:06.255Z,5.23
2018-07-25T10:14:35.865Z,4.57
2018-07-25T10:17:04.917Z,4.43
2018-07-25T10:19:34.133Z,4.60
2018-07-25T10:22:03.190Z,5.03
2018-07-25T10:24:32.218Z,4.27
2018-07-25T10:27:02.205Z,4.00
2018-07-25T10:29:31.216Z,4.27
2018-07-25T10:32:00.490Z,4.33
2018-07-25T10:34:29.787Z,5.77
2018-07-25T10:36:58.840Z,5.37
2018-07-25T10:39:28.069Z,6.20
2018-07-25T10:41:57.993Z,7.43
2018-07-25T10:44:27.409Z,5.13
2018-07-25T10:46:56.449Z,5.63
2018-07-25T10:49:25.625Z,4.40
2018-07-25T10:51:54.844Z,4.40
2018-07-25T10:54:24.096Z,5.13
2018-07-25T10:56:52.940Z,4.53
2018-07-25T10:59:22.361Z,5.77
2018-07-25T11:01:51.444Z,4.70
2018-07-25T11:04:23.012Z,4.57
2018-07-25T11:06:58.834Z,7.00
2018-07-25T11:09:28.512Z,4.90
2018-07-25T11:12:03.251Z,8.50
2018-07-25T11:14:57.086Z,4.90
2018-07-25T11:17:26.450Z,5.63
2018-07-25T11:19:55.772Z,6.13
2018-07-25T11:22:25.323Z,4.20
2018-07-25T11:24:54.366Z,4.70
2018-07-25T11:27:23.245Z,6.27
2018-07-25T11:29:52.661Z,4.50
2018-07-25T11:32:21.947Z,6.57
2018-07-25T11:34:50.981Z,4.27
2018-07-25T11:37:20.783Z,5.03
2018-07-25T11:39:50.176Z,4.57
2018-07-25T11:45:25.409Z,4.03
2018-07-25T11:47:54.532Z,6.40
2018-07-25T11:50:36.476Z,3.83
2018-07-25T11:53:05.396Z,4.20
2018-07-25T11:55:35.065Z,3.53
2018-07-25T11:58:04.036Z,3.60
2018-07-25T12:00:33.228Z,3.63
2018-07-25T12:03:02.083Z,5.37
2018-07-25T12:05:31.581Z,3.73
2018-07-25T12:08:01.160Z,3.97
2018-07-25T12:10:31.018Z,4.00
2018-07-25T12:13:00.160Z,3.70
2018-07-25T12:15:29.297Z,3.97
2018-07-25T12:17:58.409Z,4.00
2018-07-25T12:20:28.109Z,3.40
2018-07-25T12:22:57.964Z,4.97
2018-07-25T12:25:28.094Z,3.40
2018-07-25T12:27:57.724Z,7.53
2018-07-25T12:30:26.796Z,3.77
2018-07-25T12:32:56.202Z,3.13
2018-07-25T12:35:25.480Z,3.07
2018-07-25T12:37:54.505Z,3.10
2018-07-25T12:40:29.489Z,3.30
2018-07-25T12:42:58.802Z,3.20
2018-07-25T12:45:28.139Z,6.50
2018-07-25T12:47:57.412Z,5.80
2018-07-25T12:50:26.988Z,3.03
2018-07-25T12:52:57.310Z,4.67
2018-07-25T12:55:27.309Z,3.43
2018-07-25T12:57:59.011Z,4.33
2018-07-25T13:00:28.232Z,3.17
2018-07-25T13:02:57.639Z,3.93
2018-07-25T13:05:26.833Z,3.87
2018-07-25T13:07:55.953Z,3.33
2018-07-25T13:10:25.135Z,3.43
2018-07-25T13:12:55.223Z,3.23
2018-07-25T13:15:35.836Z,6.30
2018-07-25T13:18:04.926Z,4.97
2018-07-25T13:20:34.029Z,4.47
2018-07-25T13:23:03.561Z,3.33
2018-07-25T13:25:32.613Z,4.37
2018-07-25T13:28:01.886Z,3.57
2018-07-25T13:30:31.052Z,4.57
2018-07-25T13:33:00.557Z,4.70
2018-07-25T13:35:29.832Z,4.33
2018-07-25T13:37:59.565Z,3.27
2018-07-25T13:40:28.621Z,3.27
2018-07-25T13:42:58.395Z,4.43
2018-07-25T13:45:27.376Z,3.67
2018-07-25T13:47:57.036Z,4.00
2018-07-25T13:50:26.524Z,4.73
2018-07-25T13:52:55.593Z,4.43
2018-07-25T13:55:25.160Z,4.47
2018-07-25T13:57:56.204Z,2.80
2018-07-25T14:00:41.482Z,3.10
2018-07-25T14:03:11.473Z,3.10
2018-07-25T14:05:41.281Z,3.20
2018-07-25T14:08:10.757Z,3.23
2018-07-25T14:10:47.659Z,3.67
2018-07-25T14:13:17.451Z,4.20
2018-07-25T14:15:47.429Z,4.60
2018-07-25T14:18:17.164Z,3.37
2018-07-25T14:20:48.056Z,5.60
2018-07-25T14:23:17.457Z,3.70
2018-07-25T14:25:47.252Z,3.87
2018-07-25T14:28:21.357Z,2.63
2018-07-25T14:30:51.105Z,5.30
2018-07-25T14:33:20.160Z,4.90
2018-07-25T14:35:49.316Z,3.23
2018-07-25T14:38:18.421Z,2.97
2018-07-25T14:40:57.928Z,4.83
2018-07-25T14:43:34.849Z,5.87
2018-07-25T14:46:05.984Z,3.07
2018-07-25T14:48:35.908Z,4.33
2018-07-25T14:51:19.098Z,3.60
2018-07-25T14:53:54.229Z,2.70
2018-07-25T14:56:25.374Z,3.23
2018-07-25T14:59:05.097Z,4.50
2018-07-25T15:04:40.250Z,3.27
2018-07-25T15:07:09.334Z,3.57
2018-07-25T15:09:42.365Z,5.27
2018-07-25T15:15:16.992Z,3.90
2018-07-25T15:17:51.874Z,4.17
2018-07-25T15:20:21.254Z,3.37
2018-07-25T15:22:50.901Z,4.00
2018-07-25T15:25:20.240Z,3.60
2018-07-25T15:27:49.530Z,5.53
2018-07-25T15:30:18.967Z,4.30
2018-07-25T15:32:48.286Z,5.17
2018-07-25T15:35:18.035Z,2.87
2018-07-25T15:37:47.448Z,3.47
2018-07-25T15:40:17.228Z,3.90
2018-07-25T15:42:49.779Z,4.23
2018-07-25T15:45:19.249Z,4.37
2018-07-25T15:47:48.411Z,4.73
2018-07-25T15:50:17.764Z,4.70
2018-07-25T15:52:46.937Z,4.20
2018-07-25T15:55:15.917Z,6.10
2018-07-25T15:57:45.007Z,5.40
2018-07-25T16:00:14.061Z,5.73
2018-07-25T16:02:43.777Z,5.67
2018-07-25T16:05:12.805Z,5.73
2018-07-25T16:07:42.543Z,4.40
2018-07-25T16:10:12.098Z,7.50
2018-07-25T16:12:42.435Z,4.43
2018-07-25T16:15:12.409Z,7.63
2018-07-25T16:17:43.686Z,5.70
2018-07-25T16:20:13.538Z,4.20
2018-07-25T16:22:43.097Z,4.80
2018-07-25T16:25:12.430Z,4.40
2018-07-25T16:27:41.948Z,5.50
2018-07-25T16:30:12.039Z,7.03
2018-07-25T16:32:45.791Z,6.27
2018-07-25T16:35:20.414Z,16.87
2018-07-25T16:37:49.888Z,7.33
2018-07-25T16:40:19.844Z,5.27
2018-07-25T16:42:49.217Z,4.60
2018-07-25T16:45:24.267Z,5.63
2018-07-25T16:47:54.041Z,4.60
2018-07-25T16:50:25.733Z,3.60
2018-07-25T16:52:55.590Z,4.43
2018-07-25T16:55:24.777Z,6.73
2018-07-25T16:57:54.277Z,3.97
2018-07-25T17:00:23.349Z,3.80
2018-07-25T17:02:52.880Z,3.97
2018-07-25T17:05:22.386Z,3.80
2018-07-25T17:07:51.544Z,4.47
2018-07-25T17:10:20.664Z,4.67
2018-07-25T17:12:51.097Z,4.63
2018-07-25T17:15:21.011Z,4.63
2018-07-25T17:17:50.612Z,5.13
2018-07-25T17:20:21.274Z,4.10
2018-07-25T17:22:50.616Z,5.40
2018-07-25T17:25:20.438Z,3.93
2018-07-25T17:27:49.565Z,6.10
2018-07-25T17:32:56.779Z,4.70
2018-07-25T17:35:26.149Z,4.83
2018-07-25T17:37:56.792Z,4.77
2018-07-25T17:40:26.446Z,3.90
2018-07-25T17:42:55.993Z,4.47
2018-07-25T17:45:25.558Z,6.87
2018-07-25T17:47:55.137Z,4.80
2018-07-25T17:50:24.077Z,4.63
2018-07-25T17:52:53.252Z,4.80
2018-07-25T17:55:22.337Z,4.20
2018-07-25T17:57:51.529Z,5.23
2018-07-25T18:00:23.970Z,4.83
2018-07-25T18:02:53.435Z,4.40
2018-07-25T18:05:22.720Z,5.90
2018-07-25T18:07:51.899Z,5.30
2018-07-25T18:10:22.718Z,5.93
2018-07-25T18:13:55.587Z,4.47
2018-07-25T18:16:24.741Z,5.23
2018-07-25T18:18:54.520Z,4.57
2018-07-25T18:21:23.697Z,4.83
2018-07-25T18:23:52.928Z,4.47
2018-07-25T18:26:22.589Z,6.17
2018-07-25T18:28:51.725Z,5.50
2018-07-25T18:31:21.345Z,4.63
2018-07-25T18:33:50.676Z,7.50
2018-07-25T18:36:19.822Z,4.10
2018-07-25T18:38:48.947Z,4.60
2018-07-25T18:41:18.501Z,5.53
2018-07-25T18:43:47.679Z,5.97
2018-07-25T18:46:24.237Z,7.27
2018-07-25T18:48:53.559Z,6.00
2018-07-25T18:51:23.046Z,6.43
2018-07-25T18:53:52.590Z,5.53
2018-07-25T18:56:22.092Z,5.50
2018-07-25T18:58:51.789Z,7.50
2018-07-25T19:01:21.081Z,6.00
2018-07-25T19:03:50.047Z,7.50
2018-07-25T19:06:21.318Z,8.90
2018-07-25T19:08:51.234Z,6.37
2018-07-25T19:11:21.155Z,7.00
2018-07-25T19:14:02.509Z,8.47
2018-07-25T19:16:31.833Z,7.77
2018-07-25T19:19:01.139Z,7.47
2018-07-25T19:21:30.768Z,5.37
2018-07-25T19:23:59.783Z,6.83
2018-07-25T19:26:29.114Z,7.83
2018-07-25T19:28:59.822Z,5.07
2018-07-25T19:31:30.094Z,5.50
2018-07-25T19:33:59.348Z,6.00
2018-07-25T19:36:28.311Z,5.30
2018-07-25T19:38:57.410Z,5.43
2018-07-25T19:41:26.364Z,5.23
2018-07-25T19:43:55.712Z,5.80
2018-07-25T19:46:25.518Z,5.50
2018-07-25T19:48:54.641Z,7.60
2018-07-25T19:51:23.594Z,5.90
2018-07-25T19:53:52.615Z,5.73
2018-07-25T19:56:22.921Z,5.97
2018-07-25T19:58:52.705Z,8.00
2018-07-25T20:01:21.890Z,5.53
2018-07-25T20:03:50.743Z,5.47
2018-07-25T20:06:27.969Z,5.77
2018-07-25T20:08:57.508Z,6.00
2018-07-25T20:11:26.715Z,6.40
2018-07-25T20:14:01.270Z,6.37
2018-07-25T20:16:30.478Z,5.77
2018-07-25T20:18:59.797Z,5.40
2018-07-25T20:21:30.666Z,5.53
2018-07-25T20:24:03.159Z,5.20
2018-07-25T20:26:32.421Z,6.77
2018-07-25T20:29:01.610Z,6.93
2018-07-25T20:31:31.567Z,6.13
2018-07-25T20:34:00.552Z,6.40
2018-07-25T20:36:29.596Z,6.83
2018-07-25T20:38:58.880Z,7.00
2018-07-25T20:41:28.179Z,6.17
2018-07-25T20:43:57.940Z,6.97
2018-07-25T20:46:27.444Z,6.67
2018-07-25T20:48:56.413Z,8.33
2018-07-25T20:51:25.487Z,6.67
2018-07-25T20:53:54.887Z,5.97
2018-07-25T20:56:23.980Z,5.70
2018-07-25T20:58:53.394Z,6.27
2018-07-25T21:01:22.697Z,6.70
2018-07-25T21:03:51.677Z,7.27
2018-07-25T21:06:20.626Z,6.93
2018-07-25T21:08:49.736Z,6.37
2018-07-25T21:11:18.885Z,6.87
2018-07-25T21:13:47.815Z,9.77
2018-07-25T21:16:43.135Z,7.10
2018-07-25T21:19:12.554Z,6.93
2018-07-25T21:21:42.145Z,6.80
2018-07-25T21:24:19.089Z,7.27
2018-07-25T21:26:52.457Z,7.43
2018-07-25T21:29:21.730Z,7.07
2018-07-25T21:31:50.839Z,8.53
2018-07-25T21:34:20.333Z,8.80
2018-07-25T21:36:49.558Z,7.43
2018-07-25T21:47:32.567Z,7.37
2018-07-25T21:50:01.732Z,9.43
2018-07-25T21:52:32.279Z,7.50
2018-07-25T21:55:01.606Z,7.17
2018-07-25T21:57:32.589Z,6.97
2018-07-25T22:00:01.965Z,6.63
2018-07-25T22:02:31.129Z,6.70
2018-07-25T22:05:00.849Z,7.73
2018-07-25T22:07:30.170Z,6.90
2018-07-25T22:10:01.828Z,6.87
2018-07-25T22:12:35.396Z,6.90
2018-07-25T22:15:05.330Z,7.00
2018-07-25T22:17:34.934Z,6.47
2018-07-25T22:20:07.237Z,7.00
2018-07-25T22:22:36.257Z,6.77
2018-07-25T22:25:06.098Z,6.90
2018-07-25T22:27:38.974Z,7.50
2018-07-25T22:30:11.834Z,6.47
2018-07-25T22:32:46.956Z,6.43
2018-07-25T22:35:19.107Z,7.00
2018-07-25T22:37:48.537Z,6.77
2018-07-25T22:40:18.785Z,6.00
2018-07-25T22:42:48.413Z,6.47
2018-07-25T22:45:17.580Z,6.30
2018-07-25T22:47:46.698Z,6.63
2018-07-25T22:50:15.915Z,7.43
2018-07-25T22:52:44.986Z,6.53
2018-07-25T22:55:14.336Z,6.37
2018-07-25T22:57:43.382Z,6.40
2018-07-25T23:00:12.828Z,7.07
2018-07-25T23:02:42.206Z,6.60
2018-07-25T23:05:11.405Z,6.10
2018-07-25T23:07:43.475Z,6.20
2018-07-25T23:10:12.589Z,6.30
2018-07-25T23:12:41.753Z,6.37
2018-07-25T23:15:11.588Z,6.77
2018-07-25T23:17:40.747Z,6.60
2018-07-25T23:20:09.845Z,6.93
2018-07-25T23:22:53.078Z,7.10
2018-07-25T23:25:22.122Z,6.97
2018-07-25T23:27:51.548Z,6.60
2018-07-25T23:30:20.742Z,7.03
2018-07-25T23:32:50.495Z,8.00
2018-07-25T23:35:20.222Z,7.13
2018-07-25T23:37:49.812Z,7.37
2018-07-25T23:40:19.546Z,7.33
2018-07-25T23:42:49.513Z,6.20
2018-07-25T23:45:19.009Z,6.70
2018-07-25T23:47:47.945Z,7.37
2018-07-25T23:50:17.373Z,7.20
2018-07-25T23:52:48.175Z,7.20
2018-07-25T23:55:17.216Z,7.67
2018-07-25T23:57:46.534Z,7.40
